createdAt,value
2018-05-25T00:02:04.484Z,99.90
2018-05-25T00:04:32.004Z,99.90
2018-05-25T00:06:59.459Z,99.90
2018-05-25T00:09:26.927Z,99.90
2018-05-25T00:11:54.376Z,99.90
2018-05-25T00:14:21.861Z,99.90
2018-05-25T00:16:49.315Z,99.90
2018-05-25T00:19:16.739Z,99.90
2018-05-25T00:21:44.196Z,99.90
2018-05-25T00:24:12.422Z,99.90
2018-05-25T00:26:39.872Z,99.90
2018-05-25T00:29:07.349Z,99.90
2018-05-25T00:31:34.809Z,99.90
2018-05-25T00:34:03.024Z,99.90
2018-05-25T00:36:31.231Z,99.90
2018-05-25T00:38:58.704Z,99.90
2018-05-25T00:41:26.154Z,99.90
2018-05-25T00:43:53.618Z,99.90
2018-05-25T00:46:21.075Z,99.90
2018-05-25T00:48:48.538Z,99.90
2018-05-25T00:51:15.975Z,99.90
2018-05-25T00:53:43.536Z,99.90
2018-05-25T00:56:11.751Z,99.90
2018-05-25T00:58:39.771Z,99.90
2018-05-25T01:01:07.234Z,99.90
2018-05-25T01:03:34.665Z,99.90
2018-05-25T01:06:02.139Z,99.90
2018-05-25T01:08:29.593Z,99.90
2018-05-25T01:10:57.044Z,99.90
2018-05-25T01:13:24.524Z,99.90
2018-05-25T01:15:51.985Z,99.90
2018-05-25T01:18:19.416Z,99.90
2018-05-25T01:20:46.852Z,99.90
2018-05-25T01:23:14.319Z,99.90
2018-05-25T01:25:41.772Z,99.90
2018-05-25T01:28:09.285Z,99.90
2018-05-25T01:30:36.739Z,99.90
2018-05-25T01:33:04.197Z,99.90
2018-05-25T01:35:31.631Z,99.90
2018-05-25T01:37:59.713Z,99.90
2018-05-25T01:40:27.175Z,99.90
2018-05-25T01:42:54.619Z,99.90
2018-05-25T01:45:22.082Z,99.90
2018-05-25T01:47:49.531Z,99.90
2018-05-25T01:50:17.008Z,99.90
2018-05-25T01:52:44.438Z,99.90
2018-05-25T01:55:11.889Z,99.90
2018-05-25T01:57:39.360Z,99.90
2018-05-25T02:00:06.808Z,99.90
2018-05-25T02:02:35.135Z,99.90
2018-05-25T02:05:02.570Z,99.90
2018-05-25T02:07:30.035Z,99.90
2018-05-25T02:09:57.498Z,99.90
2018-05-25T02:12:24.935Z,99.90
2018-05-25T02:14:52.382Z,99.90
2018-05-25T02:17:19.843Z,99.90
2018-05-25T02:19:47.305Z,99.90
2018-05-25T02:22:14.753Z,99.90
2018-05-25T02:24:42.208Z,99.90
2018-05-25T02:27:09.656Z,99.90
2018-05-25T02:29:37.140Z,99.90
2018-05-25T02:32:04.589Z,99.90
2018-05-25T02:34:32.025Z,99.90
2018-05-25T02:36:59.515Z,99.90
2018-05-25T02:39:26.953Z,99.90
2018-05-25T02:41:54.419Z,99.90
2018-05-25T02:44:21.867Z,99.90
2018-05-25T02:46:49.323Z,99.90
2018-05-25T02:49:16.771Z,99.90
2018-05-25T02:51:44.309Z,99.90
2018-05-25T02:54:12.514Z,99.90
2018-05-25T02:56:39.980Z,99.90
2018-05-25T02:59:07.535Z,99.90
2018-05-25T03:01:34.984Z,99.90
2018-05-25T03:04:02.476Z,99.90
2018-05-25T03:06:29.911Z,99.90
2018-05-25T03:08:57.368Z,99.90
2018-05-25T03:11:24.807Z,99.90
2018-05-25T03:13:52.275Z,99.90
2018-05-25T03:16:19.740Z,99.90
2018-05-25T03:18:47.367Z,99.90
2018-05-25T03:21:14.819Z,99.90
2018-05-25T03:23:42.261Z,99.90
2018-05-25T03:26:09.807Z,99.90
2018-05-25T03:28:37.988Z,99.90
2018-05-25T03:31:05.444Z,99.90
2018-05-25T03:33:32.896Z,99.90
2018-05-25T03:36:00.389Z,99.90
2018-05-25T03:38:27.841Z,99.90
2018-05-25T03:40:56.052Z,99.90
2018-05-25T03:43:23.500Z,99.90
2018-05-25T03:45:50.968Z,99.90
2018-05-25T03:48:18.415Z,99.90
2018-05-25T03:50:45.876Z,99.90
2018-05-25T03:53:13.317Z,99.90
2018-05-25T03:55:40.764Z,99.90
2018-05-25T03:58:08.227Z,99.90
2018-05-25T04:00:47.609Z,99.90
2018-05-25T04:03:15.099Z,99.90
2018-05-25T04:05:43.333Z,99.90
2018-05-25T04:08:10.776Z,99.90
2018-05-25T04:10:38.559Z,99.90
2018-05-25T04:13:06.025Z,99.90
2018-05-25T04:15:33.465Z,99.90
2018-05-25T04:18:01.236Z,99.90
2018-05-25T04:20:28.674Z,99.90
2018-05-25T04:22:56.174Z,99.90
2018-05-25T04:25:23.653Z,99.90
2018-05-25T04:27:51.119Z,99.90
2018-05-25T04:30:18.557Z,99.90
2018-05-25T04:32:46.008Z,99.90
2018-05-25T04:35:13.452Z,99.90
2018-05-25T04:37:40.909Z,99.90
2018-05-25T04:40:08.343Z,99.90
2018-05-25T04:42:35.801Z,99.90
2018-05-25T04:45:03.240Z,99.90
2018-05-25T04:47:31.449Z,99.60
2018-05-25T04:49:58.914Z,99.80
2018-05-25T04:52:26.368Z,99.20
2018-05-25T04:54:54.683Z,98.90
2018-05-25T04:57:22.121Z,98.90
2018-05-25T04:59:49.572Z,98.90
2018-05-25T05:02:17.015Z,98.80
2018-05-25T05:04:44.470Z,98.60
2018-05-25T05:07:11.914Z,98.40
2018-05-25T05:09:39.372Z,97.60
2018-05-25T05:12:06.786Z,97.60
2018-05-25T05:14:34.801Z,97.30
2018-05-25T05:17:02.242Z,96.90
2018-05-25T05:19:29.699Z,96.80
2018-05-25T05:21:57.147Z,96.70
2018-05-25T05:24:24.733Z,96.60
2018-05-25T05:26:52.968Z,96.40
2018-05-25T05:29:20.420Z,96.40
2018-05-25T05:31:47.864Z,96.20
2018-05-25T05:34:16.067Z,95.60
2018-05-25T05:36:43.508Z,95.60
2018-05-25T05:39:10.958Z,96.00
2018-05-25T05:41:38.401Z,95.50
2018-05-25T05:44:05.849Z,95.20
2018-05-25T05:46:33.292Z,94.70
2018-05-25T05:49:00.737Z,94.10
2018-05-25T05:51:28.317Z,94.00
2018-05-25T05:53:55.748Z,93.80
2018-05-25T05:56:23.187Z,93.50
2018-05-25T05:58:51.400Z,92.50
2018-05-25T06:01:18.837Z,92.50
2018-05-25T06:03:46.305Z,92.70
2018-05-25T06:06:13.950Z,92.00
2018-05-25T06:08:42.153Z,92.00
2018-05-25T06:11:09.600Z,92.00
2018-05-25T06:13:37.063Z,92.30
2018-05-25T06:16:04.483Z,91.70
2018-05-25T06:18:31.931Z,91.10
2018-05-25T06:20:59.789Z,91.30
2018-05-25T06:23:27.226Z,91.60
2018-05-25T06:25:54.655Z,92.00
2018-05-25T06:28:22.103Z,92.40
2018-05-25T06:30:50.417Z,92.30
2018-05-25T06:33:18.033Z,92.20
2018-05-25T06:35:46.254Z,91.70
2018-05-25T06:38:13.688Z,91.70
2018-05-25T06:40:41.976Z,92.20
2018-05-25T06:43:10.193Z,91.70
2018-05-25T06:45:37.636Z,91.70
2018-05-25T06:48:05.084Z,91.10
2018-05-25T06:50:32.538Z,90.30
2018-05-25T06:53:00.761Z,85.40
2018-05-25T06:55:28.200Z,85.40
2018-05-25T06:57:55.653Z,83.10
2018-05-25T07:00:23.853Z,79.80
2018-05-25T07:02:51.288Z,79.80
2018-05-25T07:05:18.725Z,78.50
2018-05-25T07:23:29.292Z,69.20
2018-05-25T07:25:56.734Z,69.70
2018-05-25T07:32:37.528Z,67.00
2018-05-25T07:35:04.981Z,66.20
2018-05-25T07:37:32.432Z,63.40
2018-05-25T07:39:59.969Z,61.30
2018-05-25T07:42:27.524Z,60.60
2018-05-25T07:44:55.740Z,57.60
2018-05-25T07:47:23.202Z,57.60
2018-05-25T07:49:50.707Z,55.80
2018-05-25T07:52:18.168Z,56.10
2018-05-25T07:54:45.612Z,56.00
2018-05-25T07:57:13.074Z,56.40
2018-05-25T07:59:40.539Z,55.80
2018-05-25T08:02:07.981Z,54.50
2018-05-25T08:04:35.421Z,54.80
2018-05-25T08:07:02.872Z,52.80
2018-05-25T08:09:30.313Z,52.30
2018-05-25T08:11:58.646Z,50.40
2018-05-25T08:14:26.072Z,50.40
2018-05-25T08:16:56.479Z,49.70
2018-05-25T08:19:23.912Z,50.10
2018-05-25T08:21:51.571Z,50.80
2018-05-25T08:24:18.937Z,49.40
2018-05-25T08:26:46.400Z,49.10
2018-05-25T08:29:14.218Z,49.30
2018-05-25T08:31:41.664Z,48.80
2018-05-25T08:34:09.871Z,49.00
2018-05-25T08:36:37.315Z,48.90
2018-05-25T08:39:06.428Z,48.10
2018-05-25T08:41:35.275Z,47.70
2018-05-25T08:44:02.707Z,47.60
2018-05-25T08:46:30.150Z,47.80
2018-05-25T08:48:57.605Z,49.10
2018-05-25T08:51:25.049Z,48.40
2018-05-25T08:53:52.489Z,48.30
2018-05-25T08:56:20.944Z,45.90
2018-05-25T08:58:48.383Z,45.90
2018-05-25T09:01:15.908Z,45.60
2018-05-25T09:03:43.279Z,46.90
2018-05-25T09:06:10.715Z,47.20
2018-05-25T09:08:38.961Z,44.60
2018-05-25T09:11:06.405Z,44.50
2018-05-25T09:13:33.848Z,45.40
2018-05-25T09:16:01.683Z,45.50
2018-05-25T09:18:29.919Z,47.00
2018-05-25T09:20:57.361Z,46.90
2018-05-25T09:23:25.144Z,47.40
2018-05-25T09:25:52.585Z,47.40
2018-05-25T09:28:20.044Z,46.40
2018-05-25T09:30:47.504Z,46.30
2018-05-25T09:33:14.952Z,46.00
2018-05-25T09:35:42.394Z,46.00
2018-05-25T09:38:10.619Z,44.00
2018-05-25T09:40:38.055Z,44.00
2018-05-25T09:43:05.499Z,44.40
2018-05-25T09:45:33.719Z,43.30
2018-05-25T09:48:01.173Z,43.30
2018-05-25T09:50:28.604Z,42.60
2018-05-25T09:52:56.076Z,42.80
2018-05-25T09:55:23.527Z,42.10
2018-05-25T09:57:57.404Z,41.30
2018-05-25T10:00:25.905Z,41.20
2018-05-25T10:02:54.541Z,40.60
2018-05-25T10:05:22.751Z,40.00
2018-05-25T10:07:50.201Z,40.00
2018-05-25T10:10:18.066Z,40.20
2018-05-25T10:12:45.500Z,40.40
2018-05-25T10:15:12.960Z,38.50
2018-05-25T10:17:40.412Z,39.70
2018-05-25T10:20:07.880Z,39.20
2018-05-25T10:22:35.320Z,38.60
2018-05-25T10:25:02.760Z,37.30
2018-05-25T10:27:30.987Z,37.60
2018-05-25T10:31:33.246Z,36.30
2018-05-25T10:34:01.067Z,37.10
2018-05-25T10:36:28.542Z,36.30
2018-05-25T10:38:56.759Z,38.00
2018-05-25T10:41:24.195Z,37.80
2018-05-25T10:43:52.401Z,36.70
2018-05-25T10:46:19.848Z,36.70
2018-05-25T10:48:47.288Z,35.10
2018-05-25T10:51:15.500Z,35.00
2018-05-25T10:53:42.957Z,35.00
2018-05-25T10:56:10.389Z,36.30
2018-05-25T10:58:38.605Z,40.50
2018-05-25T11:01:06.053Z,40.50
2018-05-25T11:03:33.488Z,41.80
2018-05-25T11:07:32.045Z,44.10
2018-05-25T11:09:59.484Z,45.00
2018-05-25T11:12:26.928Z,45.50
2018-05-25T11:14:55.136Z,46.70
2018-05-25T11:17:22.580Z,46.70
2018-05-25T11:19:50.023Z,45.60
2018-05-25T11:22:17.734Z,45.00
2018-05-25T11:24:45.177Z,43.00
2018-05-25T11:27:12.632Z,41.20
2018-05-25T11:29:40.092Z,40.40
2018-05-25T11:32:07.532Z,40.50
2018-05-25T11:34:34.981Z,38.80
2018-05-25T11:37:03.194Z,39.70
2018-05-25T11:39:30.635Z,39.60
2018-05-25T11:43:15.053Z,38.30
2018-05-25T11:45:42.513Z,38.30
2018-05-25T11:48:10.223Z,36.80
2018-05-25T11:50:37.705Z,37.70
2018-05-25T11:53:05.198Z,37.80
2018-05-25T11:55:32.606Z,36.90
2018-05-25T11:58:00.072Z,37.30
2018-05-25T12:00:28.264Z,36.00
2018-05-25T12:02:55.722Z,35.90
2018-05-25T12:05:23.179Z,35.60
2018-05-25T12:07:50.777Z,34.30
2018-05-25T12:10:18.209Z,33.80
2018-05-25T12:12:45.654Z,34.10
2018-05-25T12:15:13.112Z,33.60
2018-05-25T12:17:40.555Z,33.10
2018-05-25T12:20:08.768Z,36.10
2018-05-25T12:22:36.430Z,36.00
2018-05-25T12:25:03.856Z,33.70
2018-05-25T12:27:32.055Z,35.10
2018-05-25T12:29:59.507Z,35.00
2018-05-25T12:32:26.948Z,34.70
2018-05-25T12:34:55.157Z,34.50
2018-05-25T12:37:22.608Z,34.40
2018-05-25T12:39:50.070Z,32.60
2018-05-25T12:42:17.513Z,31.80
2018-05-25T12:44:57.511Z,32.80
2018-05-25T12:47:25.143Z,32.80
2018-05-25T12:49:52.590Z,33.00
2018-05-25T12:52:20.808Z,31.20
2018-05-25T12:54:48.259Z,31.20
2018-05-25T12:57:15.696Z,32.50
2018-05-25T12:59:43.900Z,32.30
2018-05-25T13:02:11.356Z,32.30
2018-05-25T13:04:38.801Z,32.80
2018-05-25T13:07:06.252Z,31.10
2018-05-25T13:09:33.688Z,30.50
2018-05-25T13:12:01.140Z,30.00
2018-05-25T13:14:28.608Z,31.30
2018-05-25T13:16:56.067Z,32.80
2018-05-25T13:19:23.505Z,34.40
2018-05-25T13:21:50.942Z,34.70
2018-05-25T13:24:18.395Z,32.20
2018-05-25T13:26:45.849Z,32.80
2018-05-25T13:29:13.286Z,30.50
2018-05-25T13:31:40.794Z,29.70
2018-05-25T13:34:08.231Z,28.70
2018-05-25T13:36:36.614Z,29.90
2018-05-25T13:39:56.304Z,29.80
2018-05-25T13:42:23.856Z,29.00
2018-05-25T13:44:52.058Z,29.30
2018-05-25T13:47:19.490Z,29.30
2018-05-25T13:49:47.704Z,28.10
2018-05-25T13:52:15.154Z,28.10
2018-05-25T13:54:42.624Z,27.70
2018-05-25T13:57:10.087Z,29.40
2018-05-25T13:59:37.547Z,27.70
2018-05-25T14:02:04.973Z,28.10
2018-05-25T14:04:33.182Z,27.50
2018-05-25T14:07:00.621Z,27.50
2018-05-25T14:09:28.070Z,27.60
2018-05-25T14:11:56.288Z,28.60
2018-05-25T14:14:23.730Z,28.60
2018-05-25T14:16:51.188Z,29.00
2018-05-25T14:19:18.670Z,29.80
2018-05-25T14:21:46.121Z,30.10
2018-05-25T14:24:13.571Z,30.90
2018-05-25T14:26:41.011Z,30.60
2018-05-25T14:29:09.455Z,29.00
2018-05-25T14:31:36.910Z,28.90
2018-05-25T14:34:04.351Z,28.70
2018-05-25T14:36:31.797Z,28.20
2018-05-25T14:38:59.245Z,28.00
2018-05-25T14:41:26.725Z,27.90
2018-05-25T14:43:54.115Z,28.10
2018-05-25T14:46:21.549Z,27.60
2018-05-25T14:48:49.012Z,27.70
2018-05-25T14:51:16.449Z,27.80
2018-05-25T14:53:45.665Z,27.90
2018-05-25T14:56:13.112Z,27.90
2018-05-25T14:58:40.555Z,28.80
2018-05-25T15:01:08.806Z,29.40
2018-05-25T15:03:36.207Z,29.40
2018-05-25T15:06:04.706Z,28.60
2018-05-25T15:08:32.136Z,28.50
2018-05-25T15:11:00.373Z,29.40
2018-05-25T15:13:27.819Z,29.40
2018-05-25T15:15:55.317Z,30.00
2018-05-25T15:18:22.747Z,31.40
2018-05-25T15:20:50.204Z,31.60
2018-05-25T15:23:17.656Z,31.50
2018-05-25T15:25:45.430Z,30.90
2018-05-25T15:28:12.968Z,30.90
2018-05-25T15:30:40.415Z,30.00
2018-05-25T15:33:08.935Z,32.20
2018-05-25T15:35:36.364Z,32.10
2018-05-25T15:38:04.631Z,35.40
2018-05-25T15:40:32.852Z,36.40
2018-05-25T15:43:00.294Z,36.30
2018-05-25T15:45:27.896Z,37.20
2018-05-25T15:47:55.339Z,36.80
2018-05-25T15:50:22.768Z,34.90
2018-05-25T15:52:50.220Z,35.10
2018-05-25T15:55:18.436Z,34.70
2018-05-25T15:57:45.874Z,34.80
2018-05-25T16:00:13.312Z,35.10
2018-05-25T16:02:40.765Z,35.10
2018-05-25T16:05:08.202Z,34.60
2018-05-25T16:07:35.817Z,34.40
2018-05-25T16:10:03.265Z,34.50
2018-05-25T16:12:31.474Z,35.00
2018-05-25T16:14:58.924Z,35.00
2018-05-25T16:17:26.381Z,34.70
2018-05-25T16:19:53.824Z,35.60
2018-05-25T16:22:22.038Z,36.00
2018-05-25T16:24:49.494Z,36.00
2018-05-25T16:27:16.958Z,34.90
2018-05-25T16:29:44.405Z,33.80
2018-05-25T16:32:11.861Z,32.60
2018-05-25T16:34:39.330Z,32.20
2018-05-25T16:37:06.776Z,32.50
2018-05-25T16:39:34.220Z,33.80
2018-05-25T16:42:01.688Z,35.10
2018-05-25T16:44:29.895Z,37.80
2018-05-25T16:46:57.376Z,37.80
2018-05-25T16:49:24.863Z,38.90
2018-05-25T16:51:52.311Z,39.60
2018-05-25T16:54:19.774Z,40.70
2018-05-25T16:56:47.230Z,41.30
2018-05-25T16:59:14.728Z,41.40
2018-05-25T17:01:42.117Z,41.90
2018-05-25T17:04:09.576Z,42.50
2018-05-25T17:06:37.014Z,43.10
2018-05-25T17:09:06.022Z,43.80
2018-05-25T17:11:33.493Z,43.80
2018-05-25T17:14:00.934Z,44.00
2018-05-25T17:16:29.168Z,44.90
2018-05-25T17:18:56.608Z,44.90
2018-05-25T17:21:24.061Z,45.20
2018-05-25T17:23:51.502Z,46.00
2018-05-25T17:26:19.771Z,46.30
2018-05-25T17:28:47.961Z,46.40
2018-05-25T17:31:15.421Z,46.90
2018-05-25T17:33:42.924Z,46.90
2018-05-25T17:36:10.823Z,47.30
2018-05-25T17:38:39.096Z,47.70
2018-05-25T17:41:06.552Z,47.90
2018-05-25T17:43:33.991Z,47.50
2018-05-25T17:46:02.207Z,48.90
2018-05-25T17:48:29.643Z,48.90
2018-05-25T17:50:57.083Z,49.10
2018-05-25T17:53:25.337Z,49.50
2018-05-25T17:55:53.536Z,48.80
2018-05-25T17:58:20.977Z,48.70
2018-05-25T18:00:48.439Z,49.20
2018-05-25T18:03:15.897Z,49.00
2018-05-25T18:05:43.356Z,49.50
2018-05-25T18:08:10.877Z,50.00
2018-05-25T18:10:38.319Z,50.90
2018-05-25T18:13:05.765Z,51.50
2018-05-25T18:15:33.220Z,52.10
2018-05-25T18:18:00.669Z,53.10
2018-05-25T18:20:28.123Z,53.70
2018-05-25T18:22:55.573Z,55.00
2018-05-25T18:25:23.780Z,56.50
2018-05-25T18:27:51.247Z,56.50
2018-05-25T18:30:18.703Z,57.10
2018-05-25T18:32:46.187Z,57.60
2018-05-25T18:35:13.653Z,58.20
2018-05-25T18:37:41.138Z,58.40
2018-05-25T18:40:08.818Z,59.10
2018-05-25T18:42:37.022Z,59.50
2018-05-25T18:45:04.543Z,59.50
2018-05-25T18:47:31.978Z,59.60
2018-05-25T18:49:59.411Z,60.10
2018-05-25T18:52:27.648Z,61.70
2018-05-25T18:54:55.862Z,62.10
2018-05-25T18:57:23.404Z,62.10
2018-05-25T18:59:50.941Z,62.90
2018-05-25T19:02:19.579Z,63.10
2018-05-25T19:04:47.093Z,64.70
2018-05-25T19:07:14.588Z,65.00
2018-05-25T19:09:42.048Z,65.80
2018-05-25T19:12:09.484Z,66.40
2018-05-25T19:14:37.697Z,67.80
2018-05-25T19:17:05.165Z,67.80
2018-05-25T19:19:32.608Z,68.10
2018-05-25T19:22:00.041Z,68.50
2018-05-25T19:24:28.273Z,69.40
2018-05-25T19:26:55.799Z,69.40
2018-05-25T19:29:23.204Z,70.00
2018-05-25T19:31:50.650Z,69.90
2018-05-25T19:34:18.100Z,71.00
2018-05-25T19:36:45.542Z,70.80
2018-05-25T19:39:12.999Z,71.60
2018-05-25T19:41:40.461Z,72.40
2018-05-25T19:44:08.679Z,73.80
2018-05-25T19:46:36.152Z,73.70
2018-05-25T19:49:03.690Z,74.60
2018-05-25T19:51:31.122Z,74.90
2018-05-25T19:53:59.260Z,76.00
2018-05-25T19:56:26.710Z,76.70
2018-05-25T19:58:54.206Z,77.10
2018-05-25T20:01:22.435Z,78.30
2018-05-25T20:03:50.357Z,78.30
2018-05-25T20:06:18.577Z,80.60
2018-05-25T20:08:46.039Z,80.60
2018-05-25T20:11:13.606Z,81.40
2018-05-25T20:13:41.187Z,82.90
2018-05-25T20:16:08.778Z,83.50
2018-05-25T20:18:36.173Z,83.90
2018-05-25T20:21:03.677Z,85.70
2018-05-25T20:23:31.136Z,85.80
2018-05-25T20:25:59.324Z,85.90
2018-05-25T20:28:26.787Z,86.50
2018-05-25T20:30:54.573Z,86.40
2018-05-25T20:33:22.028Z,86.80
2018-05-25T20:35:49.459Z,87.40
2018-05-25T20:38:16.925Z,88.40
2018-05-25T20:40:44.358Z,88.90
2018-05-25T20:43:11.820Z,89.30
2018-05-25T20:45:39.784Z,89.20
2018-05-25T20:48:07.264Z,89.90
2018-05-25T20:50:36.830Z,90.10
2018-05-25T20:53:05.464Z,90.60
2018-05-25T20:55:33.684Z,91.00
2018-05-25T20:58:01.907Z,91.40
2018-05-25T21:00:29.368Z,91.40
2018-05-25T21:02:57.359Z,91.60
2018-05-25T21:05:25.623Z,91.80
2018-05-25T21:07:53.059Z,92.00
2018-05-25T21:10:20.513Z,92.30
2018-05-25T21:12:48.910Z,92.50
2018-05-25T21:15:16.356Z,92.50
2018-05-25T21:17:44.835Z,92.90
2018-05-25T21:20:12.238Z,92.90
2018-05-25T21:22:39.701Z,93.20
2018-05-25T21:25:07.133Z,93.60
2018-05-25T21:27:34.580Z,93.90
2018-05-25T21:30:02.832Z,94.10
2018-05-25T21:32:30.240Z,94.00
2018-05-25T21:34:57.713Z,94.50
2018-05-25T21:37:25.201Z,94.40
2018-05-25T21:39:52.644Z,94.50
2018-05-25T21:42:20.089Z,94.40
2018-05-25T21:44:47.548Z,94.50
2018-05-25T21:47:14.995Z,94.60
2018-05-25T21:49:42.436Z,94.80
2018-05-25T21:52:09.867Z,95.00
2018-05-25T21:54:37.320Z,95.20
2018-05-25T21:57:04.752Z,95.30
2018-05-25T21:59:32.207Z,95.60
2018-05-25T22:01:59.648Z,95.80
2018-05-25T22:04:27.752Z,96.00
2018-05-25T22:06:55.216Z,96.10
2018-05-25T22:09:22.679Z,96.20
2018-05-25T22:11:50.167Z,96.30
2018-05-25T22:14:17.613Z,96.40
2018-05-25T22:16:45.081Z,96.50
2018-05-25T22:19:12.511Z,96.70
2018-05-25T22:21:39.952Z,96.80
2018-05-25T22:24:07.409Z,97.00
2018-05-25T22:26:34.851Z,97.10
2018-05-25T22:29:02.301Z,97.10
2018-05-25T22:31:29.765Z,97.10
2018-05-25T22:33:57.204Z,97.40
2018-05-25T22:36:24.637Z,97.80
2018-05-25T22:38:52.086Z,97.50
2018-05-25T22:41:19.517Z,97.60
2018-05-25T22:43:59.683Z,97.70
2018-05-25T22:46:39.808Z,97.80
2018-05-25T22:49:19.111Z,97.80
2018-05-25T22:51:58.443Z,97.80
2018-05-25T22:54:34.048Z,98.00
2018-05-25T22:57:01.510Z,98.10
2018-05-25T22:59:28.953Z,98.20
2018-05-25T23:01:56.405Z,98.30
2018-05-25T23:04:23.848Z,98.30
2018-05-25T23:06:51.315Z,98.10
2018-05-25T23:09:18.753Z,98.10
2018-05-25T23:11:46.197Z,98.10
2018-05-25T23:14:14.424Z,98.30
2018-05-25T23:16:41.877Z,98.30
2018-05-25T23:19:09.311Z,98.40
2018-05-25T23:21:53.833Z,98.40
2018-05-25T23:24:21.287Z,98.40
2018-05-25T23:26:48.724Z,98.50
2018-05-25T23:29:16.587Z,98.50
2018-05-25T23:31:43.995Z,98.50
2018-05-25T23:34:12.215Z,98.90
2018-05-25T23:36:39.658Z,98.80
2018-05-25T23:39:07.130Z,99.00
2018-05-25T23:41:35.304Z,98.90
2018-05-25T23:44:02.795Z,98.90
2018-05-25T23:46:30.248Z,98.90
2018-05-25T23:48:57.707Z,98.90
2018-05-25T23:51:25.144Z,98.90
2018-05-25T23:53:52.581Z,99.00
2018-05-25T23:56:20.821Z,99.10
2018-05-25T23:58:48.268Z,99.10
